^^
Saratoga-Weather Station Historical Data
Daily Summary for June 25, 2020 Units:  English    Metric   Both
Daily Weekly Monthly Yearly Custom
  High: Low: Average:
Temperature: 49.3 °F 38.3 °F 45.3 °F
Dew Point: 45.5 °F 36 °F 41.7 °F
Humidity: 95% 67% 88%
Wind Speed: 20mph 0mph 4.5mph
Wind Gust: 20mph - -
Wind- - West
Pressure: 29.8 in 29.5 in -
Precipitation: 0.56 in    
Historical Graphs
 
 
Tabular Data for June 25, 2020
Time Temperature Dew Point Pressure Wind Wind Speed Wind Gust Humidity Rainfall Rate (Hourly) solar
00:00 48.9 °F 45.5 °F 29.8 in NW 4.9 mph 9 mph 88% 0 in 0 W/m2
00:05 48.9 °F 45.1 °F 29.8 in WNW 2.9 mph 4 mph 87% 0 in 0 W/m2
00:10 48.9 °F 45.1 °F 29.8 in WNW 0.9 mph 5 mph 87% 0 in 0 W/m2
00:15 49.1 °F 45.3 °F 29.8 in NNW 2 mph 5 mph 87% 0 in 0 W/m2
00:20 49.1 °F 45.1 °F 29.8 in NNW 4 mph 12 mph 86% 0 in 0 W/m2
00:25 49.3 °F 45.3 °F 29.8 in North 0.9 mph 9 mph 86% 0 in 0 W/m2
00:30 49.3 °F 45.3 °F 29.8 in Calm   12 mph 86% 0 in 0 W/m2
00:35 49.1 °F 45.1 °F 29.8 in WNW 4.9 mph 10 mph 86% 0 in 0 W/m2
00:40 48.9 °F 45 °F 29.8 in WSW 2 mph 8 mph 86% 0 in 0 W/m2
00:45 48.9 °F 45 °F 29.8 in NNW 4 mph 10 mph 86% 0 in 0 W/m2
00:50 48.7 °F 45 °F 29.8 in WNW 4 mph 9 mph 87% 0 in 0 W/m2
00:55 48.7 °F 45.3 °F 29.8 in NNW 8.1 mph 10 mph 88% 0 in 0 W/m2
01:00 48.4 °F 45 °F 29.8 in WNW 4.9 mph 8 mph 88% 0 in 0 W/m2
01:05 48 °F 45 °F 29.8 in West 4 mph 8 mph 89% 0 in 0 W/m2
01:10 47.8 °F 45 °F 29.8 in NNW 2.9 mph 7 mph 90% 0 in 0 W/m2
01:15 47.7 °F 45 °F 29.8 in SSW 0.9 mph 4 mph 90% 0 in 0 W/m2
01:20 47.7 °F 45.1 °F 29.8 in West 2.9 mph 7 mph 91% 0.01 in 0 W/m2
01:25 47.5 °F 45 °F 29.8 in West 0.9 mph 6 mph 91% 0.01 in 0 W/m2
01:30 47.3 °F 44.8 °F 29.8 in NW 2.9 mph 6 mph 91% 0.01 in 0 W/m2
01:35 47.1 °F 45 °F 29.8 in NW 2 mph 12 mph 92% 0.01 in 0 W/m2
01:40 47.1 °F 45 °F 29.8 in WNW 8.1 mph 12 mph 92% 0.02 in 0 W/m2
01:45 47.1 °F 45 °F 29.8 in NW 2 mph 6 mph 92% 0.02 in 0 W/m2
01:50 46.9 °F 44.8 °F 29.8 in NW 6 mph 10 mph 92% 0.02 in 0 W/m2
01:55 46.9 °F 44.8 °F 29.8 in West 2.9 mph 5 mph 92% 0.02 in 0 W/m2
02:00 46.9 °F 45 °F 29.8 in NNW 4 mph 5 mph 93% 0.02 in 0 W/m2
02:05 46.8 °F 44.8 °F 29.8 in WNW 2.9 mph 6 mph 93% 0.02 in 0 W/m2
02:10 46.8 °F 44.8 °F 29.8 in WNW 2.9 mph   93% 0.02 in 0 W/m2
02:15 46.8 °F 44.8 °F 29.8 in NNE 2.9 mph 3 mph 93% 0.02 in 0 W/m2
02:20 46.8 °F 44.8 °F 29.8 in NNE 2.9 mph 3 mph 93% 0.02 in 0 W/m2
02:25 46.8 °F 44.8 °F 29.8 in NNE 2.9 mph   93% 0.02 in 0 W/m2
02:30 46.8 °F 44.8 °F 29.8 in Calm     93% 0.03 in 0 W/m2
02:35 46.8 °F 44.8 °F 29.8 in Calm     93% 0.03 in 0 W/m2
02:40 46.6 °F 44.6 °F 29.8 in Calm     93% 0.02 in 0 W/m2
02:45 46.6 °F 44.6 °F 29.8 in Calm     93% 0.03 in 0 W/m2
02:50 46.6 °F 44.6 °F 29.8 in NW 2 mph 11 mph 93% 0.02 in 0 W/m2
02:55 46.6 °F 44.6 °F 29.8 in West 6 mph 12 mph 93% 0.03 in 0 W/m2
03:00 46.6 °F 44.6 °F 29.8 in North 2.9 mph 5 mph 93% 0.03 in 0 W/m2
03:06 46.6 °F 44.6 °F 29.8 in WSW 6.9 mph 12 mph 93% 0.03 in 0 W/m2
03:11 46.4 °F 44.4 °F 29.8 in WNW 4 mph 7 mph 93% 0.04 in 0 W/m2
03:16 46.4 °F 44.4 °F 29.8 in NNE 6.9 mph 9 mph 93% 0.05 in 0 W/m2
03:21 46.2 °F 44.2 °F 29.7 in West 2 mph 14 mph 93% 0.04 in 0 W/m2
03:26 46.2 °F 44.2 °F 29.7 in WNW 0.9 mph 7 mph 93% 0.05 in 0 W/m2
03:31 46.2 °F 44.2 °F 29.7 in WNW 10.1 mph 14 mph 93% 0.04 in 0 W/m2
03:36 46.2 °F 44.2 °F 29.7 in NW 2 mph 7 mph 93% 0.04 in 0 W/m2
03:41 46.2 °F 44.2 °F 29.7 in West 6.9 mph 11 mph 93% 0.05 in 0 W/m2
03:46 46 °F 44.1 °F 29.7 in WNW 6 mph 8 mph 93% 0.04 in 0 W/m2
03:51 46 °F 44.1 °F 29.7 in West 6.9 mph 7 mph 93% 0.05 in 0 W/m2
03:56 46 °F 44.1 °F 29.7 in WNW 8.9 mph 10 mph 93% 0.04 in 0 W/m2
04:01 46 °F 44.1 °F 29.7 in NW 2.9 mph 12 mph 93% 0.05 in 0 W/m2
04:06 45.9 °F 43.9 °F 29.7 in WNW 0.9 mph 4 mph 93% 0.05 in 0 W/m2
04:11 45.9 °F 43.9 °F 29.7 in WNW 4 mph 11 mph 93% 0.05 in 0 W/m2
04:16 45.9 °F 43.9 °F 29.7 in West 0.9 mph 5 mph 93% 0.04 in 0 W/m2
04:21 45.9 °F 43.9 °F 29.7 in WNW 2.9 mph 10 mph 93% 0.05 in 0 W/m2
04:26 45.9 °F 43.9 °F 29.7 in NNW 8.1 mph 19 mph 93% 0.04 in 0 W/m2
04:31 45.9 °F 43.9 °F 29.7 in NW 2.9 mph 7 mph 93% 0.05 in 0 W/m2
04:36 45.9 °F 43.9 °F 29.7 in NW 4.9 mph 11 mph 93% 0.05 in 0 W/m2
04:41 45.7 °F 43.7 °F 29.7 in North 8.1 mph 12 mph 93% 0.04 in 0 W/m2
04:46 45.7 °F 44.1 °F 29.7 in West 2.9 mph 8 mph 94% 0.05 in 0 W/m2
04:51 45.7 °F 44.1 °F 29.7 in SSE 4.9 mph 12 mph 94% 0.04 in 0 W/m2
04:57 45.7 °F 44.1 °F 29.7 in NW 2.9 mph 9 mph 94% 0.05 in 0 W/m2
05:02 45.7 °F 44.1 °F 29.7 in NW 8.9 mph 9 mph 94% 0.05 in 0 W/m2
05:07 45.7 °F 44.1 °F 29.7 in WSW 4 mph 6 mph 94% 0.04 in 0 W/m2
05:12 45.7 °F 44.1 °F 29.7 in NW 2.9 mph 6 mph 94% 0.05 in 0 W/m2
05:17 45.7 °F 44.1 °F 29.7 in WNW 8.1 mph 10 mph 94% 0.05 in 0 W/m2
05:22 45.7 °F 44.1 °F 29.7 in WNW 4 mph 11 mph 94% 0.04 in 0 W/m2
05:27 45.7 °F 44.1 °F 29.7 in SSW 4 mph 6 mph 94% 0.05 in 0 W/m2
05:32 45.7 °F 43.7 °F 29.7 in NNW 0.9 mph 12 mph 93% 0.04 in 0 W/m2
05:37 45.7 °F 44.1 °F 29.7 in WNW 6.9 mph 8 mph 94% 0.04 in 0 W/m2
05:42 45.7 °F 44.1 °F 29.7 in SE 0.9 mph 7 mph 94% 0.05 in 0 W/m2
05:47 45.7 °F 44.1 °F 29.7 in WNW 2 mph 3 mph 94% 0.05 in 0 W/m2
05:52 45.7 °F 44.1 °F 29.7 in SSW 2.9 mph 3 mph 94% 0.04 in 0 W/m2
05:57 45.7 °F 44.1 °F 29.7 in SW 2.9 mph 4 mph 94% 0.04 in 0 W/m2
06:02 45.7 °F 44.1 °F 29.7 in SSW 2 mph 6 mph 94% 0.04 in 0 W/m2
06:07 45.7 °F 44.1 °F 29.7 in WSW 2.9 mph 9 mph 94% 0.04 in 0 W/m2
06:12 45.7 °F 44.1 °F 29.7 in Calm   2 mph 94% 0.04 in 0 W/m2
06:17 45.7 °F 44.1 °F 29.7 in WSW 2.9 mph 7 mph 94% 0.04 in 0 W/m2
06:22 45.7 °F 44.1 °F 29.7 in WNW 4 mph 8 mph 94% 0.05 in 0 W/m2
06:27 45.7 °F 44.1 °F 29.7 in West 2 mph 10 mph 94% 0.04 in 0 W/m2
06:32 45.7 °F 44.1 °F 29.7 in North 4 mph 6 mph 94% 0.05 in 0 W/m2
06:37 45.7 °F 44.1 °F 29.7 in NW 4.9 mph 10 mph 94% 0.04 in 0 W/m2
06:42 45.7 °F 44.1 °F 29.7 in WSW 4.9 mph 15 mph 94% 0.05 in 0 W/m2
06:47 45.7 °F 44.1 °F 29.7 in North 2 mph 8 mph 94% 0.05 in 0 W/m2
06:52 45.7 °F 44.1 °F 29.7 in North 0.9 mph 7 mph 94% 0.05 in 0 W/m2
06:57 45.7 °F 44.1 °F 29.7 in East 2 mph 4 mph 94% 0.06 in 0 W/m2
07:02 45.7 °F 44.1 °F 29.7 in NW 4.9 mph 9 mph 94% 0.06 in 0 W/m2
07:07 45.7 °F 44.1 °F 29.7 in North 2.9 mph 6 mph 94% 0.05 in 0 W/m2
07:12 45.7 °F 44.1 °F 29.7 in NW 10.1 mph 10 mph 94% 0.06 in 0 W/m2
07:17 45.7 °F 44.1 °F 29.7 in WNW 2.9 mph 7 mph 94% 0.06 in 0 W/m2
07:22 45.7 °F 44.1 °F 29.7 in West 6.9 mph 10 mph 94% 0.06 in 0 W/m2
07:28 45.7 °F 44.1 °F 29.7 in West 6 mph 9 mph 94% 0.06 in 0 W/m2
07:33 45.9 °F 44.2 °F 29.7 in ESE 2.9 mph 6 mph 94% 0.05 in 0 W/m2
07:38 45.9 °F 44.2 °F 29.7 in NW 2 mph 10 mph 94% 0.05 in 0 W/m2
07:43 45.9 °F 44.2 °F 29.7 in WSW 6 mph 20 mph 94% 0.05 in 0 W/m2
07:48 45.9 °F 44.2 °F 29.7 in West 6.9 mph 9 mph 94% 0.04 in 5 W/m2
07:53 45.9 °F 44.2 °F 29.7 in SW 10.1 mph 11 mph 94% 0.05 in 7 W/m2
07:58 45.9 °F 44.2 °F 29.7 in WNW 6.9 mph 7 mph 94% 0.04 in 7 W/m2
08:03 45.9 °F 44.2 °F 29.7 in West 2.9 mph 9 mph 94% 0.03 in 7 W/m2
08:08 45.9 °F 44.2 °F 29.7 in WNW 4.9 mph 5 mph 94% 0.03 in 7 W/m2
08:13 45.9 °F 44.2 °F 29.7 in SW 2.9 mph 9 mph 94% 0.02 in 7 W/m2
08:18 45.9 °F 44.2 °F 29.7 in NW 4 mph 9 mph 94% 0.02 in 7 W/m2
08:23 45.9 °F 44.2 °F 29.7 in NW 2 mph 8 mph 94% 0.02 in 7 W/m2
08:28 45.9 °F 44.2 °F 29.7 in WSW 4 mph 4 mph 94% 0.02 in 7 W/m2
08:33 45.9 °F 44.2 °F 29.7 in WNW 4 mph 7 mph 94% 0.02 in 7 W/m2
08:38 45.9 °F 44.2 °F 29.7 in WNW 2.9 mph 5 mph 94% 0.02 in 7 W/m2
08:43 45.9 °F 44.2 °F 29.7 in WSW 2 mph 4 mph 94% 0.02 in 7 W/m2
08:48 45.9 °F 44.2 °F 29.7 in WNW 4 mph 12 mph 94% 0.02 in 11 W/m2
08:53 45.9 °F 44.4 °F 29.7 in WNW 0.9 mph 7 mph 95% 0.02 in 12 W/m2
08:58 45.9 °F 44.4 °F 29.7 in West 2.9 mph 12 mph 95% 0.02 in 25 W/m2
09:03 46 °F 44.6 °F 29.7 in SSW 0.9 mph 5 mph 95% 0.02 in 21 W/m2
09:08 46 °F 44.6 °F 29.7 in NW 4 mph 8 mph 95% 0.02 in 46 W/m2
09:13 46 °F 44.6 °F 29.7 in WNW 2.9 mph 4 mph 95% 0.03 in 62 W/m2
09:18 46 °F 44.6 °F 29.7 in West 6 mph 10 mph 95% 0.04 in 63 W/m2
09:23 45.9 °F 44.2 °F 29.7 in NW 14.1 mph 18 mph 94% 0.03 in 72 W/m2
09:28 45.7 °F 44.1 °F 29.7 in WNW 4 mph 13 mph 94% 0.03 in 116 W/m2
09:33 45.7 °F 43.7 °F 29.7 in West 8.1 mph 17 mph 93% 0.03 in 156 W/m2
09:38 45.7 °F 43.7 °F 29.7 in WSW 4 mph 10 mph 93% 0.03 in 137 W/m2
09:43 45.7 °F 43.5 °F 29.7 in NW 11 mph 13 mph 92% 0.03 in 109 W/m2
09:48 45.7 °F 43.5 °F 29.7 in WNW 4 mph 7 mph 92% 0.03 in 144 W/m2
09:53 45.7 °F 43.2 °F 29.7 in WSW 4 mph 8 mph 91% 0.02 in 146 W/m2
09:58 45.7 °F 43.2 °F 29.7 in WNW 4.9 mph 8 mph 91% 0.02 in 186 W/m2
10:03 45.9 °F 43.3 °F 29.7 in WNW 2 mph 10 mph 91% 0.02 in 185 W/m2
10:09 45.9 °F 43.3 °F 29.7 in NW 2.9 mph 10 mph 91% 0.01 in 121 W/m2
10:14 45.9 °F 43.3 °F 29.7 in WNW 6.9 mph 8 mph 91% 0 in 163 W/m2
10:19 45.9 °F 43.3 °F 29.7 in WSW 2.9 mph 7 mph 91% 0 in 146 W/m2
10:24 45.9 °F 43.3 °F 29.7 in WNW 6 mph 9 mph 91% 0 in 118 W/m2
10:29 45.7 °F 43 °F 29.7 in West 6.9 mph 9 mph 90% 0 in 128 W/m2
10:34 45.7 °F 43 °F 29.7 in WNW 2.9 mph 9 mph 90% 0 in 123 W/m2
10:39 45.7 °F 42.6 °F 29.7 in West 8.1 mph 12 mph 89% 0 in 172 W/m2
10:44 45.7 °F 42.6 °F 29.7 in WNW 4.9 mph 10 mph 89% 0 in 153 W/m2
10:49 45.7 °F 42.6 °F 29.7 in West 4 mph 7 mph 89% 0 in 192 W/m2
10:54 45.7 °F 42.6 °F 29.7 in WSW 6 mph 8 mph 89% 0 in 185 W/m2
10:59 45.5 °F 42.4 °F 29.7 in NNW 2.9 mph 14 mph 89% 0 in 155 W/m2
11:04 45.3 °F 42.3 °F 29.7 in WNW 2 mph 6 mph 89% 0 in 148 W/m2
11:09 45.3 °F 42.6 °F 29.7 in SW 4 mph 10 mph 90% 0 in 207 W/m2
11:14 45.5 °F 42.4 °F 29.7 in NW 8.1 mph 9 mph 89% 0 in 199 W/m2
11:19 45.7 °F 42.6 °F 29.7 in South 0.9 mph 5 mph 89% 0 in 223 W/m2
11:24 45.9 °F 42.8 °F 29.7 in West 6 mph 9 mph 89% 0 in 181 W/m2
11:29 46 °F 42.6 °F 29.7 in WNW 6.9 mph 7 mph 88% 0 in 207 W/m2
11:34 46 °F 42.4 °F 29.7 in NW 8.9 mph 12 mph 87% 0 in 123 W/m2
11:39 46 °F 42.1 °F 29.7 in WSW 6 mph 8 mph 86% 0 in 200 W/m2
11:44 46 °F 42.1 °F 29.7 in West 4 mph 12 mph 86% 0 in 216 W/m2
11:49 46 °F 42.4 °F 29.7 in West 4 mph 8 mph 87% 0 in 204 W/m2
11:54 46.2 °F 42.6 °F 29.7 in West 0.9 mph 10 mph 87% 0 in 200 W/m2
11:59 46.6 °F 42.6 °F 29.7 in WSW 4.9 mph 7 mph 86% 0 in 153 W/m2
12:04 46.8 °F 42.8 °F 29.7 in West 6.9 mph 9 mph 86% 0 in 339 W/m2
12:09 46.9 °F 42.6 °F 29.7 in SW 2.9 mph 10 mph 85% 0 in 227 W/m2
12:14 47.1 °F 42.8 °F 29.7 in WNW 8.1 mph 10 mph 85% 0 in 98 W/m2
12:19 46.9 °F 42.1 °F 29.7 in WNW 2 mph 11 mph 83% 0 in 118 W/m2
12:24 46.9 °F 42.4 °F 29.7 in WNW 4 mph 6 mph 84% 0 in 287 W/m2
12:29 47.1 °F 42.6 °F 29.7 in WSW 8.9 mph 9 mph 84% 0 in 225 W/m2
12:34 47.1 °F 42.3 °F 29.7 in WNW 8.1 mph 12 mph 83% 0 in 176 W/m2
12:39 47.3 °F 42.8 °F 29.6 in SW 4.9 mph 6 mph 84% 0 in 130 W/m2
12:44 47.1 °F 41.9 °F 29.6 in WNW 4 mph 8 mph 82% 0 in 139 W/m2
12:49 47.3 °F 42.1 °F 29.6 in WNW 13 mph 13 mph 82% 0 in 220 W/m2
12:55 47.7 °F 42.8 °F 29.6 in NNW 2 mph 17 mph 83% 0 in 406 W/m2
13:00 48 °F 42.4 °F 29.6 in West 2.9 mph 10 mph 81% 0 in 179 W/m2
13:05 48.4 °F 42.4 °F 29.6 in WNW 2.9 mph 14 mph 80% 0 in 469 W/m2
13:10 48.7 °F 42.4 °F 29.6 in WSW 2.9 mph 5 mph 79% 0 in 167 W/m2
13:15 48.7 °F 42.3 °F 29.6 in West 6.9 mph 13 mph 78% 0 in 179 W/m2
13:20 48.4 °F 41.2 °F 29.6 in West 8.1 mph 17 mph 76% 0 in 327 W/m2
13:25 48 °F 41.5 °F 29.6 in NW 4.9 mph 12 mph 78% 0 in 239 W/m2
13:30 47.7 °F 41.5 °F 29.6 in NW 6.9 mph 12 mph 79% 0 in 135 W/m2
13:35 47.1 °F 41.5 °F 29.6 in West 8.9 mph 12 mph 81% 0 in 113 W/m2
13:40 46.9 °F 41.7 °F 29.6 in SSW 4 mph 11 mph 82% 0 in 204 W/m2
13:45 46.6 °F 42.1 °F 29.6 in WSW 8.9 mph 17 mph 84% 0.01 in 121 W/m2
13:50 46.6 °F 42.3 °F 29.6 in WNW 6 mph 11 mph 85% 0.01 in 79 W/m2
13:55 46.6 °F 42.3 °F 29.6 in West 6.9 mph 15 mph 85% 0.01 in 74 W/m2
14:00 46.8 °F 42.4 °F 29.6 in WNW 8.1 mph 10 mph 85% 0.01 in 165 W/m2
14:05 47.1 °F 42.3 °F 29.6 in West 8.1 mph 20 mph 83% 0.01 in 116 W/m2
14:10 47.5 °F 42.6 °F 29.6 in West 6 mph 11 mph 83% 0.01 in 76 W/m2
14:16 47.3 °F 42.1 °F 29.6 in NW 8.9 mph 20 mph 82% 0.01 in 102 W/m2
14:21 47.5 °F 41.9 °F 29.6 in WNW 4.9 mph 10 mph 81% 0.01 in 165 W/m2
14:26 47.8 °F 42.3 °F 29.6 in West 6.9 mph 16 mph 81% 0.01 in 178 W/m2
14:31 48.2 °F 42.3 °F 29.6 in West 8.1 mph 8 mph 80% 0.01 in 188 W/m2
14:36 48.6 °F 41.7 °F 29.6 in West 8.1 mph 12 mph 77% 0.01 in 334 W/m2
14:41 48.6 °F 41.4 °F 29.6 in West 8.9 mph 13 mph 76% 0.01 in 62 W/m2
14:46 48.6 °F 41.4 °F 29.6 in WSW 4.9 mph 12 mph 76% 0 in 302 W/m2
14:51 48.7 °F 41.5 °F 29.6 in West 8.1 mph 9 mph 76% 0 in 146 W/m2
14:56 48.7 °F 41.2 °F 29.6 in West 8.1 mph 10 mph 75% 0 in 176 W/m2
15:01 48.9 °F 41 °F 29.6 in WNW 6.9 mph 14 mph 74% 0 in 176 W/m2
15:06 48.9 °F 39.6 °F 29.6 in WNW 8.9 mph 17 mph 70% 0 in 151 W/m2
15:11 49.1 °F 40.1 °F 29.6 in West 6 mph 9 mph 71% 0 in 102 W/m2
15:16 49.1 °F 39.7 °F 29.6 in West 6.9 mph 15 mph 70% 0 in 171 W/m2
15:21 49.1 °F 39.7 °F 29.6 in SW 6.9 mph 16 mph 70% 0 in 123 W/m2
15:26 48.9 °F 38.5 °F 29.6 in West 20 mph 20 mph 67% 0 in 74 W/m2
15:31 48.9 °F 38.8 °F 29.6 in NW 4.9 mph 13 mph 68% 0 in 104 W/m2
15:36 48.9 °F 38.8 °F 29.6 in WNW 8.1 mph 12 mph 68% 0 in 162 W/m2
15:41 49.1 °F 39 °F 29.6 in WSW 11 mph 11 mph 68% 0 in 169 W/m2
15:46 49.3 °F 39.6 °F 29.6 in WNW 4 mph 9 mph 69% 0 in 134 W/m2
15:51 49.1 °F 39.4 °F 29.6 in West 6.9 mph 11 mph 69% 0 in 102 W/m2
15:57 48.9 °F 39.6 °F 29.6 in WSW 6 mph 11 mph 70% 0 in 153 W/m2
16:02 48.7 °F 39.4 °F 29.6 in WNW 2.9 mph 11 mph 70% 0 in 97 W/m2
16:07 48.7 °F 39.7 °F 29.6 in WNW 4 mph 9 mph 71% 0 in 223 W/m2
16:12 48.7 °F 40.1 °F 29.6 in WSW 4 mph 7 mph 72% 0 in 109 W/m2
16:17 48.7 °F 40.1 °F 29.6 in NW 8.1 mph 14 mph 72% 0 in 90 W/m2
16:22 48.6 °F 39.9 °F 29.6 in ESE 0.9 mph 8 mph 72% 0 in 32 W/m2
16:27 48.4 °F 40.1 °F 29.6 in WNW 4.9 mph 13 mph 73% 0 in 42 W/m2
16:32 48.2 °F 40.3 °F 29.6 in NNW 4 mph 6 mph 74% 0 in 46 W/m2
16:37 48 °F 39.7 °F 29.6 in West 6.9 mph 7 mph 73% 0 in 53 W/m2
16:42 48.2 °F 39.9 °F 29.6 in NNW 4 mph 7 mph 73% 0 in 33 W/m2
16:47 48.4 °F 39.7 °F 29.5 in NNW 4 mph 8 mph 72% 0 in 33 W/m2
16:52 48.4 °F 39.4 °F 29.6 in NE 0.9 mph 6 mph 71% 0 in 28 W/m2
16:57 48.4 °F 39.4 °F 29.5 in Calm   3 mph 71% 0 in 28 W/m2
17:02 48.4 °F 39.4 °F 29.5 in WNW 2 mph 9 mph 71% 0 in 19 W/m2
17:07 48.2 °F 39.2 °F 29.5 in NW 0.9 mph 4 mph 71% 0 in 16 W/m2
17:12 48 °F 39 °F 29.5 in WNW 2.9 mph 9 mph 71% 0 in 16 W/m2
17:17 47.8 °F 39.2 °F 29.5 in West 6 mph 8 mph 72% 0 in 14 W/m2
17:23 47.8 °F 39.2 °F 29.5 in WSW 4 mph 6 mph 72% 0 in 12 W/m2
17:28 47.8 °F 39.6 °F 29.5 in WNW 2.9 mph 7 mph 73% 0 in 0 W/m2
17:33 47.7 °F 39.7 °F 29.5 in West 2.9 mph 5 mph 74% 0 in 0 W/m2
17:38 47.5 °F 40.3 °F 29.5 in NW 0.9 mph 1 mph 76% 0 in 7 W/m2
17:43 47.3 °F 40.1 °F 29.5 in NW 2.9 mph 6 mph 76% 0 in 0 W/m2
17:48 46.8 °F 39.9 °F 29.6 in WSW 11 mph 20 mph 77% 0 in 0 W/m2
17:53 45.1 °F 40.3 °F 29.6 in NNW 8.1 mph 13 mph 83% 0.02 in 0 W/m2
17:58 43.7 °F 39.7 °F 29.6 in SW 2 mph 16 mph 86% 0.06 in 0 W/m2
18:03 43.2 °F 39.6 °F 29.6 in WNW 8.9 mph 14 mph 87% 0.06 in 0 W/m2
18:08 43 °F 39.7 °F 29.5 in West 2.9 mph 8 mph 88% 0.06 in 0 W/m2
18:13 43 °F 39.7 °F 29.5 in WNW 2.9 mph 14 mph 88% 0.06 in 0 W/m2
18:18 42.8 °F 39.7 °F 29.5 in WNW 2.9 mph 6 mph 89% 0.07 in 0 W/m2
18:23 42.8 °F 39.7 °F 29.6 in WNW 4 mph 13 mph 89% 0.09 in 0 W/m2
18:28 42.4 °F 39.7 °F 29.6 in West 11 mph 15 mph 90% 0.1 in 0 W/m2
18:33 42.3 °F 39.2 °F 29.6 in WNW 4.9 mph 16 mph 89% 0.12 in 0 W/m2
18:38 42.3 °F 39.6 °F 29.5 in WSW 4 mph 11 mph 90% 0.12 in 0 W/m2
18:43 42.3 °F 39.6 °F 29.5 in WNW 2.9 mph 16 mph 90% 0.12 in 0 W/m2
18:48 42.3 °F 39.6 °F 29.6 in NW 8.1 mph 10 mph 90% 0.13 in 0 W/m2
18:53 42.1 °F 39.4 °F 29.6 in WNW 4 mph 8 mph 90% 0.13 in 0 W/m2
18:58 41.4 °F 38.3 °F 29.6 in WNW 6.9 mph 7 mph 89% 0.13 in 0 W/m2
19:03 41 °F 38.3 °F 29.5 in WSW 4 mph 8 mph 90% 0.14 in 0 W/m2
19:08 41.2 °F 38.8 °F 29.5 in WNW 6 mph 7 mph 91% 0.14 in 0 W/m2
19:13 41.2 °F 38.8 °F 29.5 in WNW 2 mph 7 mph 91% 0.14 in 0 W/m2
19:18 41.2 °F 38.8 °F 29.5 in NW 4.9 mph 8 mph 91% 0.14 in 0 W/m2
19:23 41.2 °F 38.8 °F 29.5 in SW 0.9 mph 9 mph 91% 0.13 in 0 W/m2
19:28 41.2 °F 38.8 °F 29.5 in WSW 2 mph 7 mph 91% 0.11 in 0 W/m2
19:33 41.2 °F 38.5 °F 29.5 in NW 2 mph 5 mph 90% 0.09 in 0 W/m2
19:38 41.2 °F 38.8 °F 29.5 in WSW 4 mph 10 mph 91% 0.09 in 0 W/m2
19:43 41.2 °F 38.8 °F 29.5 in SW 0.9 mph 8 mph 91% 0.09 in 0 W/m2
19:48 41.2 °F 38.8 °F 29.5 in WNW 2.9 mph 10 mph 91% 0.08 in 0 W/m2
19:53 41.2 °F 38.8 °F 29.5 in South 4.9 mph 10 mph 91% 0.06 in 0 W/m2
19:58 41.2 °F 38.8 °F 29.5 in WSW 4 mph 8 mph 91% 0.02 in 0 W/m2
20:03 41.2 °F 38.5 °F 29.5 in NW 4.9 mph 15 mph 90% 0.02 in 0 W/m2
20:08 41.4 °F 38.3 °F 29.5 in West 8.1 mph 10 mph 89% 0.02 in 0 W/m2
20:13 41.5 °F 38.5 °F 29.5 in WSW 8.9 mph 15 mph 89% 0.01 in 0 W/m2
20:18 41.5 °F 38.3 °F 29.5 in WSW 2.9 mph 8 mph 88% 0 in 0 W/m2
20:23 41.5 °F 38.3 °F 29.5 in WNW 2.9 mph 9 mph 88% 0 in 0 W/m2
20:28 41.5 °F 38.3 °F 29.5 in West 4 mph 9 mph 88% 0 in 0 W/m2
20:33 41.5 °F 38.3 °F 29.5 in SW 8.1 mph 11 mph 88% 0 in 0 W/m2
20:38 41.5 °F 38.3 °F 29.5 in West 2 mph 6 mph 88% 0 in 0 W/m2
20:43 41.4 °F 38.1 °F 29.5 in NW 0.9 mph 5 mph 88% 0 in 0 W/m2
20:48 41.4 °F 38.1 °F 29.5 in WNW 4 mph 8 mph 88% 0 in 0 W/m2
20:53 41.2 °F 37.9 °F 29.5 in WNW 6.9 mph 11 mph 88% 0 in 0 W/m2
20:58 41.2 °F 38.1 °F 29.5 in West 2 mph 12 mph 89% 0 in 0 W/m2
21:03 41.2 °F 38.1 °F 29.5 in WSW 4 mph 10 mph 89% 0 in 0 W/m2
21:08 41 °F 37.8 °F 29.5 in WSW 4 mph 12 mph 88% 0 in 0 W/m2
21:13 40.8 °F 37.8 °F 29.5 in NW 8.1 mph 12 mph 89% 0 in 0 W/m2
21:18 40.8 °F 37.8 °F 29.5 in NW 4.9 mph 10 mph 89% 0 in 0 W/m2
21:23 40.8 °F 37.6 °F 29.5 in WNW 2.9 mph 9 mph 88% 0 in 0 W/m2
21:28 40.8 °F 37.8 °F 29.5 in West 2.9 mph 7 mph 89% 0 in 0 W/m2
21:33 40.6 °F 37.6 °F 29.5 in West 4 mph 8 mph 89% 0 in 0 W/m2
21:38 40.6 °F 37.6 °F 29.5 in WNW 4 mph 6 mph 89% 0 in 0 W/m2
21:43 40.5 °F 37.4 °F 29.5 in West 2 mph 6 mph 89% 0 in 0 W/m2
21:48 40.5 °F 37.4 °F 29.5 in NW 0.9 mph 1 mph 89% 0 in 0 W/m2
21:53 40.5 °F 37.8 °F 29.5 in WNW 2.9 mph 6 mph 90% 0 in 0 W/m2
21:58 40.3 °F 37.6 °F 29.5 in WSW 2 mph 3 mph 90% 0 in 0 W/m2
22:03 40.1 °F 37.4 °F 29.5 in NNW 0.9 mph 3 mph 90% 0 in 0 W/m2
22:08 39.9 °F 37.2 °F 29.5 in WNW 2.9 mph 4 mph 90% 0 in 0 W/m2
22:13 39.9 °F 37.6 °F 29.5 in East 0.9 mph 5 mph 91% 0 in 0 W/m2
22:18 39.9 °F 37.6 °F 29.5 in North 2 mph 7 mph 91% 0 in 0 W/m2
22:23 39.9 °F 37.2 °F 29.5 in West 0.9 mph 5 mph 90% 0 in 0 W/m2
22:28 39.9 °F 37.2 °F 29.5 in South 0.9 mph 3 mph 90% 0 in 0 W/m2
22:33 39.7 °F 37 °F 29.5 in NW 2.9 mph 3 mph 90% 0 in 0 W/m2
22:39 39.7 °F 37 °F 29.5 in NNW 6 mph 10 mph 90% 0 in 0 W/m2
22:44 39.6 °F 36.9 °F 29.5 in NNW 4 mph 4 mph 90% 0 in 0 W/m2
22:49 39.6 °F 36.9 °F 29.5 in WSW 2 mph 10 mph 90% 0 in 0 W/m2
22:54 39.6 °F 37.2 °F 29.5 in NNW 2 mph 7 mph 91% 0 in 0 W/m2
22:59 39.6 °F 37.2 °F 29.5 in NNW 2.9 mph 6 mph 91% 0.01 in 0 W/m2
23:04 39.6 °F 37.2 °F 29.5 in WNW 6.9 mph 7 mph 91% 0.02 in 0 W/m2
23:09 39.4 °F 37 °F 29.5 in West 6 mph 14 mph 91% 0.02 in 0 W/m2
23:14 39.4 °F 37.2 °F 29.5 in SSE 8.1 mph 8 mph 92% 0.02 in 0 W/m2
23:19 39.4 °F 37.2 °F 29.5 in West 0.9 mph 14 mph 92% 0.02 in 0 W/m2
23:24 39.6 °F 37.4 °F 29.5 in NW 2 mph 7 mph 92% 0.02 in 0 W/m2
23:29 39.6 °F 37.4 °F 29.5 in SW 6.9 mph 12 mph 92% 0.02 in 0 W/m2
23:34 39.4 °F 37 °F 29.5 in WNW 10.1 mph 10 mph 91% 0.02 in 0 W/m2
23:39 39.2 °F 36.9 °F 29.5 in West 0.9 mph 12 mph 91% 0.02 in 0 W/m2
23:44 39 °F 36.7 °F 29.5 in NW 10.1 mph 13 mph 91% 0.02 in 0 W/m2
23:49 38.8 °F 36.5 °F 29.5 in WSW 2.9 mph 5 mph 91% 0.02 in 0 W/m2
23:54 38.7 °F 36.3 °F 29.5 in NW 6 mph 13 mph 91% 0.02 in 0 W/m2
23:59 38.3 °F 36 °F 29.5 in WNW 2.9 mph 7 mph 91% 0.02 in 0 W/m2
Juneau County Weather
Compliments of Weather Underground - 4 mb